• Join FlightAware (Why Join?)
  • Login
  • US Flag 
06:47PM EST


 

Airport Tracker/Info


-or-


 

Live Flight TrackerFlight Track Log ✈ CPT8691 ✈ 03-May-2013 ✈ PHNL - PHJH / JHM

Flight Track Log - Related Links

Times and Time Zones

All times are in EDT time to prevent confusion due to time zone crossing. See the CPT8691 flight status page for this flight to view local times or setup timezone preferences in your user account.

Time Position Orientation Groundspeed Altitude Reporting Facility
EDT Latitude Longitude Course Direction KTS MPH feet Rate Location/Type
01:13PM 21.3167 -157.8833 137° Southeast 100 115 600  Level Honolulu Center
01:14PM 21.3000 -157.8667 137° Southeast 110 127 1,300 694 Climbing Honolulu Center
01:15PM 21.2667 -157.8500 155° Southeast 120 138 2,000 700 Climbing Honolulu Center
01:16PM 21.2500 -157.8167 118° Southeast 120 138 2,700 700 Climbing Honolulu Center
01:17PM 21.2500 -157.7833 90° East 120 138 3,400 650 Climbing Honolulu Center
01:18PM 21.2333 -157.7500 118° Southeast 120 138 4,000 600 Climbing Honolulu Center
01:19PM 21.2333 -157.7167 90° East 120 138 4,600 600 Climbing Honolulu Center
01:20PM 21.2167 -157.6833 118° Southeast 120 138 5,200 650 Climbing Honolulu Center
01:21PM 21.2167 -157.6500 90° East 120 138 5,900 650 Climbing Honolulu Center
01:22PM 21.2167 -157.6167 90° East 120 138 6,500 545 Climbing Honolulu Center
01:23PM 21.2000 -157.5833 118° Southeast 120 138 7,000 248 Climbing Honolulu Center
01:24PM 21.2000 -157.5500 90° East 140 161 7,000  Level Honolulu Center
01:25PM 21.1833 -157.5000 110° East 150 173 7,000  Level Honolulu Center
01:26PM 21.1833 -157.4500 90° East 150 173 7,000  Level Honolulu Center
01:27PM 21.1667 -157.4167 118° Southeast 150 173 7,000  Level Honolulu Center
01:28PM 21.1667 -157.3667 90° East 150 173 7,000  Level Honolulu Center
01:29PM 21.1500 -157.3167 110° East 150 173 7,000  Level Honolulu Center
01:30PM 21.1500 -157.2833 90° East 160 184 7,000  Level Honolulu Center
01:31PM 21.1333 -157.2333 110° East 150 173 7,000  Level Honolulu Center
01:32PM 21.1333 -157.1833 90° East 150 173 7,000  Level Honolulu Center
01:33PM 21.1167 -157.1500 118° Southeast 150 173 7,000 -50 Level Honolulu Center
01:34PM 21.1000 -157.1000 110° East 150 173 6,900 -50 Descending Honolulu Center
01:35PM 21.1000 -157.0667 90° East 150 173 6,900  Level Honolulu Center
01:36PM 21.0833 -157.0167 110° East 160 184 6,900 -100 Level Honolulu Center
01:37PM 21.0667 -156.9667 110° East 170 196 6,700 -200 Descending Honolulu Center
01:38PM 21.0500 -156.9333 118° Southeast 170 196 6,500 -250 Descending Honolulu Center
01:39PM 21.0333 -156.8833 110° East 150 173 6,200 -500 Descending Honolulu Center
01:40PM 21.0167 -156.8500 118° Southeast 130 150 5,500 -942 Descending Honolulu Center
01:41PM 20.9833 -156.8167 137° Southeast 150 173 4,300 -1,388 Descending Honolulu Center
01:42PM 20.9667 -156.7833 118° Southeast 140 161 2,700 -1,300 Descending Honolulu Center
01:43PM 20.9500 -156.7333 110° East 150 173 1,700 -1,000 Descending Honolulu Center